Impacts TAF Board
For situational awareness. Not to be used for flight planning purposes.
IDs:

KEET - Alabaster/Shelby Cnt, AL, US

Issued at 2341 UTC 05 Dec 2020
Updated at 0223 UTC 06 Dec 2020
Potential Impact None Slight Moderate High
Time0153Z 06/03Z 06/04Z 06/05Z 06/06Z 06/07Z 06/08Z 06/09Z 06/10Z 06/11Z 06/12Z 06/13Z 06/14Z 06/15Z>>
Type OBS PRVL PRVL PRVL PRVL PRVL PRVL PRVL PRVL
  [TEMP]  
PRVL
  [TEMP]  
PRVL
  [TEMP]  
PRVL
  [TEMP]  
PRVL PRVL
VIS 10 >6 >6 >6 >6 >6 >6 >6 >6
  [2]  
>6
  [2]  
>6
  [2]  
>6
  [2]  
>6 >6
CIG -- -- -- -- -- -- -- -- --
  [--]  
--
  [--]  
--
  [--]  
--
  [--]  
-- 150
Cover CLR FEW FEW FEW FEW FEW FEW FEW FEW
  [FEW]  
FEW
  [FEW]  
FEW
  [FEW]  
FEW
  [FEW]  
FEW BKN
FltCat VFR VFR VFR VFR VFR VFR VFR VFR VFR
  [IFR]  
VFR
  [IFR]  
VFR
  [IFR]  
VFR
  [IFR]  
VFR VFR
WX -- -- -- -- -- -- -- -- --
  [BR]  
--
  [BR]  
--
  [BR]  
--
  [BR]  
-- --
WDir VRB VRB VRB VRB VRB VRB VRB VRB VRB
[VRB]
VRB
[VRB]
VRB
[VRB]
VRB
[VRB]
VRB 220
WSpd 0 0 0 0 0 0 0 0 0
  [0]  
0
  [0]  
0
  [0]  
0
  [0]  
0 4
WGst -- -- -- -- -- -- -- -- --
  [--]  
--
  [--]  
--
  [--]  
--
  [--]  
-- --
Raw TAF
KEET 052341Z 0600/0624 00000KT P6SM FEW250
  TEMPO 0610/0614 2SM BR
  FM061500 22004KT P6SM BKN150
  PROB30 0621/0624 -SHRA OVC050


Raw METAR
KEET 060153Z AUTO 00000KT 10SM CLR 06/04 A3011 RMK AO2 SLP198 T00610039
KEET 060053Z AUTO 00000KT 10SM CLR 07/04 A3011 RMK AO2 SLP198 T00670044
KEET 052353Z AUTO 00000KT 10SM CLR 08/04 A3010 RMK AO2 SLP195 T00830044 10156 20078 50004

METAR Board
Radar Display
Forecast Discussion
For situational awareness. Not to be used for flight planning purposes.